Time;durP1;ratioP1;P1;durP2;ratioP2;P2;SDS_P1;SDS_P2;PMS_P1;PMS_P2;Temp;Humidity;BMP_temperature;BMP_pressure;BME280_temperature;BME280_humidity;BME280_pressure;Samples;Min_cycle;Max_cycle;Signal;HPM_P1;HPM_P2
2023/07/28 00:01:12;;;;;;;1.30;1.00;;;;;;;;;;5005736;28;20205;-68
2023/07/28 00:03:39;;;;;;;1.35;1.10;;;;;;;;;;5004910;28;20220;-69
2023/07/28 00:06:06;;;;;;;1.08;0.85;;;;;;;;;;5008162;28;20208;-68
2023/07/28 00:08:33;;;;;;;0.90;0.90;;;;;;;;;;5003627;28;20275;-68
2023/07/28 00:11:02;;;;;;;1.52;0.90;;;;;;;;;;5004447;28;20220;-69
2023/07/28 00:13:29;;;;;;;2.30;0.90;;;;;;;;;;5005198;28;20227;-69
2023/07/28 00:15:56;;;;;;;0.80;0.80;;;;;;;;;;5005113;28;20202;-69
2023/07/28 00:18:23;;;;;;;2.30;0.70;;;;;;;;;;5006652;28;20209;-69
2023/07/28 00:20:50;;;;;;;0.70;0.70;;;;;;;;;;5001743;28;20205;-69
2023/07/28 00:23:18;;;;;;;0.70;0.70;;;;;;;;;;4998576;28;20220;-69
2023/07/28 00:25:45;;;;;;;0.70;0.70;;;;;;;;;;5004147;28;20208;-68
2023/07/28 00:28:13;;;;;;;0.70;0.70;;;;;;;;;;5005991;28;20197;-69
2023/07/28 00:30:40;;;;;;;0.80;0.80;;;;;;;;;;5003892;28;20290;-69
2023/07/28 00:33:08;;;;;;;1.02;1.00;;;;;;;;;;5004391;28;20220;-69
2023/07/28 00:35:35;;;;;;;0.85;0.85;;;;;;;;;;5005073;28;20201;-69
2023/07/28 00:38:02;;;;;;;1.20;1.10;;;;;;;;;;5006470;28;20204;-68
2023/07/28 00:40:29;;;;;;;2.63;0.75;;;;;;;;;;5001601;28;20292;-69
2023/07/28 00:42:56;;;;;;;0.88;0.88;;;;;;;;;;5004385;28;20213;-68
2023/07/28 00:45:25;;;;;;;3.38;1.10;;;;;;;;;;5003726;28;20209;-69
2023/07/28 00:47:52;;;;;;;3.13;1.00;;;;;;;;;;4999871;28;20244;-68
2023/07/28 00:50:20;;;;;;;1.00;1.00;;;;;;;;;;5004262;28;20233;-68
2023/07/28 00:52:47;;;;;;;1.42;1.25;;;;;;;;;;5001195;28;20197;-69
2023/07/28 00:55:14;;;;;;;1.27;1.20;;;;;;;;;;5008105;28;20311;-69
2023/07/28 00:57:41;;;;;;;1.00;1.00;;;;;;;;;;5004417;28;20200;-69
2023/07/28 01:00:11;;;;;;;1.80;1.17;;;;;;;;;;5004046;28;20201;-67
2023/07/28 01:02:39;;;;;;;1.30;1.20;;;;;;;;;;5003676;28;20217;-69
2023/07/28 01:05:07;;;;;;;1.23;1.13;;;;;;;;;;5001767;28;20196;-69
2023/07/28 01:07:38;;;;;;;1.58;1.00;;;;;;;;;;5006542;28;20402;-68
2023/07/28 01:10:08;;;;;;;0.90;0.90;;;;;;;;;;5004497;28;20233;-69
2023/07/28 01:12:35;;;;;;;1.15;1.00;;;;;;;;;;5004688;28;20204;-69
2023/07/28 01:15:02;;;;;;;1.02;1.02;;;;;;;;;;5002363;28;20219;-68
2023/07/28 01:22:48;;;;;;;2.00;1.10;;;;;;;;;;5038979;22;20232;-66
2023/07/28 01:25:20;;;;;;;1.30;1.20;;;;;;;;;;5036087;28;20200;-66
2023/07/28 01:27:49;;;;;;;2.45;1.27;;;;;;;;;;5038252;28;20196;-65
2023/07/28 01:30:16;;;;;;;1.70;1.48;;;;;;;;;;5037307;28;20255;-65
2023/07/28 01:32:43;;;;;;;1.40;1.33;;;;;;;;;;5039155;28;20204;-65
2023/07/28 01:35:10;;;;;;;2.53;1.50;;;;;;;;;;5038044;28;20211;-65
2023/07/28 01:37:38;;;;;;;2.95;1.35;;;;;;;;;;5045279;28;20281;-65
2023/07/28 01:40:05;;;;;;;1.88;1.60;;;;;;;;;;5042350;28;20211;-65
2023/07/28 01:42:32;;;;;;;1.70;1.60;;;;;;;;;;5037308;28;20196;-65
2023/07/28 01:45:01;;;;;;;3.10;1.83;;;;;;;;;;5045748;28;20208;-65
2023/07/28 01:47:29;;;;;;;2.60;1.77;;;;;;;;;;5035622;28;20203;-65
2023/07/28 01:49:56;;;;;;;1.80;1.70;;;;;;;;;;5038010;28;20260;-65
2023/07/28 01:52:23;;;;;;;2.10;1.90;;;;;;;;;;5039943;28;20228;-65
2023/07/28 01:54:51;;;;;;;2.63;2.42;;;;;;;;;;5039314;28;20322;-65
2023/07/28 01:57:18;;;;;;;2.28;2.15;;;;;;;;;;5039085;28;20200;-65
2023/07/28 01:59:45;;;;;;;2.75;2.55;;;;;;;;;;5045005;28;20215;-65
2023/07/28 02:02:14;;;;;;;2.83;2.50;;;;;;;;;;5038650;28;20200;-64
2023/07/28 02:04:41;;;;;;;2.40;2.20;;;;;;;;;;5038017;28;20211;-65
2023/07/28 02:07:08;;;;;;;2.53;2.33;;;;;;;;;;5039023;28;20204;-64
2023/07/28 02:09:35;;;;;;;2.45;2.10;;;;;;;;;;5039468;28;20289;-65
2023/07/28 02:12:03;;;;;;;2.40;2.28;;;;;;;;;;5040470;28;20219;-65
2023/07/28 02:14:30;;;;;;;3.00;2.28;;;;;;;;;;5040223;28;20203;-65
2023/07/28 02:16:57;;;;;;;2.60;2.40;;;;;;;;;;5045403;28;20203;-65
2023/07/28 02:19:25;;;;;;;2.30;2.20;;;;;;;;;;5038704;28;20204;-65
2023/07/28 02:21:53;;;;;;;2.83;2.53;;;;;;;;;;5042625;28;20246;-65
2023/07/28 02:24:20;;;;;;;2.42;2.05;;;;;;;;;;5035926;28;20196;-65
2023/07/28 02:26:47;;;;;;;2.10;2.00;;;;;;;;;;5041575;28;20204;-65
2023/07/28 02:29:14;;;;;;;2.05;1.95;;;;;;;;;;5041423;28;20211;-64
2023/07/28 02:31:41;;;;;;;2.55;2.33;;;;;;;;;;5040313;28;20319;-65
2023/07/28 02:34:08;;;;;;;2.03;1.80;;;;;;;;;;5047598;28;20211;-65
2023/07/28 02:36:37;;;;;;;1.80;1.70;;;;;;;;;;5040364;28;20203;-65
2023/07/28 02:39:04;;;;;;;1.77;1.67;;;;;;;;;;5042657;28;20204;-65
2023/07/28 02:41:32;;;;;;;1.55;1.50;;;;;;;;;;5040162;28;20191;-65
2023/07/28 02:43:59;;;;;;;2.30;2.10;;;;;;;;;;5039569;28;20196;-65
2023/07/28 02:46:26;;;;;;;2.33;1.58;;;;;;;;;;5039357;28;20200;-65
2023/07/28 02:48:53;;;;;;;1.63;1.58;;;;;;;;;;5043590;28;20216;-65
2023/07/28 02:51:20;;;;;;;1.48;1.48;;;;;;;;;;5040725;28;20211;-65
2023/07/28 02:53:49;;;;;;;2.20;2.00;;;;;;;;;;5040774;28;20211;-65
2023/07/28 02:56:16;;;;;;;2.10;2.00;;;;;;;;;;5041954;28;20228;-65
2023/07/28 02:58:43;;;;;;;2.00;1.80;;;;;;;;;;5036609;28;20208;-65
2023/07/28 03:01:10;;;;;;;1.80;1.70;;;;;;;;;;5036001;28;20203;-65
2023/07/28 03:03:37;;;;;;;2.63;2.05;;;;;;;;;;5042419;28;20204;-65
2023/07/28 03:06:04;;;;;;;2.17;2.05;;;;;;;;;;5042922;28;20204;-65
2023/07/28 03:08:32;;;;;;;2.50;2.30;;;;;;;;;;5037078;28;20208;-65
2023/07/28 03:11:02;;;;;;;2.15;1.92;;;;;;;;;;5039040;28;20220;-65
2023/07/28 03:13:29;;;;;;;1.60;1.50;;;;;;;;;;5037762;28;20227;-66
2023/07/28 03:15:56;;;;;;;2.03;1.92;;;;;;;;;;5043638;28;20206;-65
2023/07/28 03:18:23;;;;;;;2.03;1.92;;;;;;;;;;5042163;28;20200;-65
2023/07/28 03:20:51;;;;;;;2.17;1.98;;;;;;;;;;5039840;28;20204;-65
2023/07/28 03:23:18;;;;;;;2.00;1.90;;;;;;;;;;5044342;28;20343;-65
2023/07/28 03:25:45;;;;;;;2.38;2.17;;;;;;;;;;5043240;28;20227;-65
2023/07/28 03:28:13;;;;;;;3.00;1.65;;;;;;;;;;5040305;28;20207;-65
2023/07/28 03:30:41;;;;;;;2.00;1.90;;;;;;;;;;5040218;28;20207;-65
2023/07/28 03:33:08;;;;;;;2.67;2.20;;;;;;;;;;5040792;28;20204;-65
2023/07/28 03:35:35;;;;;;;1.73;1.63;;;;;;;;;;5041054;28;20212;-65
2023/07/28 03:38:02;;;;;;;2.00;1.90;;;;;;;;;;5042785;28;20196;-65
2023/07/28 03:40:29;;;;;;;2.00;1.90;;;;;;;;;;5042550;28;20302;-65
2023/07/28 03:42:57;;;;;;;2.20;2.00;;;;;;;;;;5038152;28;20211;-66
2023/07/28 03:45:25;;;;;;;2.75;1.85;;;;;;;;;;5037312;28;20203;-66
2023/07/28 03:47:52;;;;;;;1.83;1.73;;;;;;;;;;5041370;28;20207;-66
2023/07/28 03:50:20;;;;;;;2.30;1.83;;;;;;;;;;5039814;28;20196;-66
2023/07/28 03:52:47;;;;;;;2.25;1.92;;;;;;;;;;5042151;28;20215;-66
2023/07/28 03:55:14;;;;;;;1.80;1.70;;;;;;;;;;5042155;28;20202;-66
2023/07/28 03:57:41;;;;;;;2.00;1.90;;;;;;;;;;5036087;28;20214;-66
2023/07/28 04:00:10;;;;;;;2.53;2.00;;;;;;;;;;5037967;28;20207;-65
2023/07/28 04:02:38;;;;;;;2.00;1.90;;;;;;;;;;5040172;28;20211;-65
2023/07/28 04:05:06;;;;;;;2.13;1.75;;;;;;;;;;5036527;28;20215;-66
2023/07/28 04:07:33;;;;;;;1.88;1.77;;;;;;;;;;5038539;28;20267;-66
2023/07/28 04:10:00;;;;;;;3.13;1.65;;;;;;;;;;5039246;28;20230;-66
2023/07/28 04:12:27;;;;;;;1.80;1.70;;;;;;;;;;5038613;28;20230;-66
2023/07/28 04:14:54;;;;;;;1.45;1.35;;;;;;;;;;5043854;28;20214;-66
2023/07/28 04:17:21;;;;;;;1.75;1.65;;;;;;;;;;5038545;28;20407;-65
2023/07/28 04:19:50;;;;;;;1.55;1.45;;;;;;;;;;5037282;28;20208;-65
2023/07/28 04:22:21;;;;;;;1.70;1.60;;;;;;;;;;5038431;28;20231;-66
2023/07/28 04:24:48;;;;;;;1.80;1.70;;;;;;;;;;5037773;28;20224;-65
2023/07/28 04:27:15;;;;;;;1.75;1.65;;;;;;;;;;5038126;28;20200;-66
2023/07/28 04:29:43;;;;;;;2.38;2.00;;;;;;;;;;5039573;28;20210;-66
2023/07/28 04:32:10;;;;;;;2.08;1.90;;;;;;;;;;5038672;28;20223;-66
2023/07/28 04:34:37;;;;;;;1.83;1.73;;;;;;;;;;5038972;28;20204;-66
2023/07/28 04:37:06;;;;;;;1.70;1.60;;;;;;;;;;5038486;28;20214;-66
2023/07/28 04:39:33;;;;;;;1.30;1.20;;;;;;;;;;5040306;28;20283;-66
2023/07/28 04:42:01;;;;;;;1.80;1.45;;;;;;;;;;5041036;28;20210;-65
2023/07/28 04:44:28;;;;;;;2.25;1.63;;;;;;;;;;5043430;28;20211;-65
2023/07/28 04:46:55;;;;;;;4.40;2.10;;;;;;;;;;5033596;28;20219;-64
2023/07/28 04:49:22;;;;;;;2.00;1.90;;;;;;;;;;5036761;28;20215;-66
2023/07/28 04:51:49;;;;;;;2.80;2.20;;;;;;;;;;5037981;28;20229;-65
2023/07/28 04:54:18;;;;;;;2.00;1.80;;;;;;;;;;5036535;28;20211;-65
2023/07/28 04:56:45;;;;;;;3.40;2.20;;;;;;;;;;5035150;28;20206;-66
2023/07/28 04:59:13;;;;;;;2.38;1.85;;;;;;;;;;5036524;28;20211;-65
2023/07/28 05:01:40;;;;;;;3.75;1.75;;;;;;;;;;5034417;28;20207;-65
2023/07/28 05:04:07;;;;;;;2.78;1.80;;;;;;;;;;5044201;28;20202;-65
2023/07/28 05:06:34;;;;;;;2.25;1.85;;;;;;;;;;5038913;28;20204;-65
2023/07/28 05:09:01;;;;;;;2.30;2.20;;;;;;;;;;5034433;28;20215;-66
2023/07/28 05:11:30;;;;;;;2.50;1.88;;;;;;;;;;5034796;28;20234;-65
2023/07/28 05:13:57;;;;;;;2.70;2.10;;;;;;;;;;5038236;28;20207;-66
2023/07/28 05:16:24;;;;;;;2.30;2.10;;;;;;;;;;5038874;28;20199;-66
2023/07/28 05:18:51;;;;;;;2.08;1.95;;;;;;;;;;5038818;28;20200;-66
2023/07/28 05:21:18;;;;;;;2.35;2.15;;;;;;;;;;5034368;28;20203;-65
2023/07/28 05:23:45;;;;;;;2.25;2.05;;;;;;;;;;5040150;28;20192;-64
2023/07/28 05:26:12;;;;;;;2.47;2.28;;;;;;;;;;5034385;28;20204;-65
2023/07/28 05:28:41;;;;;;;2.97;2.70;;;;;;;;;;5038887;28;20293;-65
2023/07/28 05:31:08;;;;;;;2.70;2.45;;;;;;;;;;5036459;28;20211;-65
2023/07/28 05:33:35;;;;;;;3.03;2.80;;;;;;;;;;5033450;28;20227;-65
2023/07/28 05:36:03;;;;;;;3.00;2.80;;;;;;;;;;5035208;28;20205;-65
2023/07/28 05:38:30;;;;;;;5.22;2.97;;;;;;;;;;5033672;28;20222;-66
2023/07/28 05:40:58;;;;;;;3.03;2.80;;;;;;;;;;5037227;28;20279;-66
2023/07/28 05:43:25;;;;;;;3.10;2.90;;;;;;;;;;5035731;28;20196;-65
2023/07/28 05:45:53;;;;;;;3.28;2.70;;;;;;;;;;5038060;28;20215;-65
2023/07/28 05:48:21;;;;;;;5.22;2.58;;;;;;;;;;5033891;28;20196;-66
2023/07/28 05:50:48;;;;;;;3.35;2.25;;;;;;;;;;5032811;28;20231;-65
2023/07/28 05:53:15;;;;;;;3.00;2.80;;;;;;;;;;5041276;28;20215;-66
2023/07/28 05:55:42;;;;;;;3.55;3.25;;;;;;;;;;5035901;28;20210;-65
2023/07/28 05:58:09;;;;;;;3.47;3.17;;;;;;;;;;5030782;28;20200;-65
2023/07/28 06:00:37;;;;;;;4.47;4.07;;;;;;;;;;5038321;28;20210;-65
2023/07/28 06:03:05;;;;;;;3.83;3.40;;;;;;;;;;5042536;28;20298;-65
2023/07/28 06:05:32;;;;;;;3.72;3.42;;;;;;;;;;5035649;28;20207;-65
2023/07/28 06:07:59;;;;;;;3.95;3.13;;;;;;;;;;5034356;28;20284;-64
2023/07/28 06:10:27;;;;;;;4.47;3.88;;;;;;;;;;5037156;28;20203;-65
2023/07/28 06:12:54;;;;;;;5.30;3.72;;;;;;;;;;5033319;28;20227;-66
2023/07/28 06:15:21;;;;;;;3.30;3.10;;;;;;;;;;5036401;28;20327;-66
2023/07/28 06:17:48;;;;;;;5.25;3.90;;;;;;;;;;5034595;28;20212;-65
2023/07/28 06:20:17;;;;;;;3.67;3.42;;;;;;;;;;5038297;28;20216;-66
2023/07/28 06:22:44;;;;;;;6.30;3.28;;;;;;;;;;5034137;28;20234;-66
2023/07/28 06:25:11;;;;;;;5.25;3.20;;;;;;;;;;5047424;28;20208;-66
2023/07/28 06:27:39;;;;;;;5.63;3.40;;;;;;;;;;5036887;28;20215;-65
2023/07/28 06:30:07;;;;;;;6.90;3.33;;;;;;;;;;5038759;28;20212;-66
2023/07/28 06:32:34;;;;;;;4.00;3.22;;;;;;;;;;5041491;28;20227;-65
2023/07/28 06:35:02;;;;;;;4.28;3.75;;;;;;;;;;5031829;28;20215;-66
2023/07/28 06:37:31;;;;;;;3.70;3.40;;;;;;;;;;5037263;28;20218;-65
2023/07/28 06:39:58;;;;;;;5.53;3.80;;;;;;;;;;5036197;28;20196;-66
2023/07/28 06:42:26;;;;;;;3.40;3.17;;;;;;;;;;5038158;28;20242;-66
2023/07/28 06:44:53;;;;;;;3.88;3.47;;;;;;;;;;5030364;28;20212;-66
2023/07/28 06:47:20;;;;;;;3.70;3.38;;;;;;;;;;5037286;28;20373;-65
2023/07/28 06:49:48;;;;;;;3.95;3.35;;;;;;;;;;5033062;28;20206;-66
2023/07/28 06:52:15;;;;;;;4.03;3.72;;;;;;;;;;5036005;28;20211;-66
2023/07/28 06:54:43;;;;;;;3.55;3.30;;;;;;;;;;5037352;28;20195;-66
2023/07/28 06:57:10;;;;;;;4.60;2.97;;;;;;;;;;5035081;28;20207;-66
2023/07/28 06:59:38;;;;;;;4.32;3.60;;;;;;;;;;5043627;28;20207;-66
2023/07/28 07:02:06;;;;;;;3.70;3.40;;;;;;;;;;5040358;28;20200;-69
2023/07/28 07:04:33;;;;;;;3.28;2.97;;;;;;;;;;5041780;28;20223;-69
2023/07/28 07:07:00;;;;;;;3.60;3.13;;;;;;;;;;5045445;28;20203;-69
2023/07/28 07:09:27;;;;;;;3.80;3.42;;;;;;;;;;5041645;28;20207;-69
2023/07/28 07:11:56;;;;;;;3.50;2.58;;;;;;;;;;5041037;28;20214;-68
2023/07/28 07:14:23;;;;;;;3.08;2.83;;;;;;;;;;5033101;28;20231;-69
2023/07/28 07:16:50;;;;;;;3.65;3.10;;;;;;;;;;5039244;28;20215;-69
2023/07/28 07:19:18;;;;;;;3.25;3.05;;;;;;;;;;5040231;28;20216;-69
2023/07/28 07:21:45;;;;;;;4.28;3.20;;;;;;;;;;5041985;28;20239;-69
2023/07/28 07:24:13;;;;;;;3.80;2.92;;;;;;;;;;5039081;28;20281;-69
2023/07/28 07:26:40;;;;;;;3.22;2.97;;;;;;;;;;5042093;28;20208;-70
2023/07/28 07:29:09;;;;;;;3.10;2.80;;;;;;;;;;5038633;28;20207;-69
2023/07/28 07:31:36;;;;;;;3.15;2.85;;;;;;;;;;5035323;28;20211;-69
2023/07/28 07:34:05;;;;;;;3.63;2.65;;;;;;;;;;5037051;28;20236;-69
2023/07/28 07:36:32;;;;;;;4.05;2.58;;;;;;;;;;5040929;28;20200;-69
2023/07/28 07:39:00;;;;;;;3.45;2.58;;;;;;;;;;5033983;28;20351;-70
2023/07/28 07:41:29;;;;;;;2.80;2.60;;;;;;;;;;5041842;28;20203;-69
2023/07/28 07:43:56;;;;;;;3.53;2.70;;;;;;;;;;5041853;28;20218;-70
2023/07/28 07:46:25;;;;;;;3.13;2.83;;;;;;;;;;5038583;28;20207;-70
2023/07/28 07:48:52;;;;;;;3.45;3.20;;;;;;;;;;5034056;28;20208;-69
2023/07/28 07:51:19;;;;;;;3.70;3.17;;;;;;;;;;5034215;28;20302;-69
2023/07/28 07:53:47;;;;;;;3.22;2.92;;;;;;;;;;5037581;28;20277;-70
2023/07/28 07:56:14;;;;;;;3.55;3.00;;;;;;;;;;5034412;28;20215;-69
2023/07/28 07:58:41;;;;;;;4.32;3.17;;;;;;;;;;5035346;28;20231;-69
2023/07/28 08:01:08;;;;;;;4.05;3.50;;;;;;;;;;5031633;28;20203;-69
2023/07/28 08:03:37;;;;;;;3.70;3.40;;;;;;;;;;5038378;28;20217;-70
2023/07/28 08:06:05;;;;;;;3.60;3.30;;;;;;;;;;5040915;28;20239;-70
2023/07/28 08:08:32;;;;;;;4.13;3.83;;;;;;;;;;5038129;28;20211;-68
2023/07/28 08:10:59;;;;;;;4.38;3.80;;;;;;;;;;5032945;28;20200;-69
2023/07/28 08:13:28;;;;;;;4.00;3.60;;;;;;;;;;5040777;28;20227;-69
2023/07/28 08:15:55;;;;;;;3.67;3.38;;;;;;;;;;5027823;28;20217;-69
2023/07/28 08:18:22;;;;;;;3.47;3.08;;;;;;;;;;5038620;28;20266;-69
2023/07/28 08:20:51;;;;;;;3.53;3.20;;;;;;;;;;5035321;28;20465;-71
2023/07/28 08:23:18;;;;;;;3.38;3.10;;;;;;;;;;5032114;28;20233;-70
2023/07/28 08:25:45;;;;;;;3.13;2.92;;;;;;;;;;5037590;28;20300;-70
2023/07/28 08:28:12;;;;;;;3.35;3.00;;;;;;;;;;5034313;28;20203;-69
2023/07/28 08:30:39;;;;;;;3.50;3.20;;;;;;;;;;5033142;28;20203;-71
2023/07/28 08:33:07;;;;;;;3.35;2.92;;;;;;;;;;5028812;28;20284;-70
2023/07/28 08:35:34;;;;;;;2.85;2.65;;;;;;;;;;5024344;28;20211;-71
2023/07/28 08:38:03;;;;;;;4.82;3.35;;;;;;;;;;5030456;28;20202;-72
2023/07/28 08:40:30;;;;;;;3.13;2.92;;;;;;;;;;5032542;28;20201;-70
2023/07/28 08:42:57;;;;;;;3.42;3.13;;;;;;;;;;5033699;28;20287;-71
2023/07/28 08:45:25;;;;;;;3.42;3.13;;;;;;;;;;5037125;28;20210;-71
2023/07/28 08:47:52;;;;;;;3.42;3.17;;;;;;;;;;5030919;28;20215;-71
2023/07/28 08:50:20;;;;;;;7.13;6.53;;;;;;;;;;5037143;28;20210;-71
2023/07/28 08:52:49;;;;;;;3.65;3.35;;;;;;;;;;5036225;28;20223;-71
2023/07/28 08:55:17;;;;;;;4.85;3.10;;;;;;;;;;5034237;28;20239;-71
2023/07/28 08:57:45;;;;;;;4.70;3.47;;;;;;;;;;5031846;28;20200;-71
2023/07/28 09:00:13;;;;;;;3.60;3.30;;;;;;;;;;5034758;28;20203;-70
2023/07/28 09:02:41;;;;;;;3.42;2.85;;;;;;;;;;5036326;28;20258;-72
2023/07/28 09:05:09;;;;;;;4.13;3.35;;;;;;;;;;5042883;28;20208;-71
2023/07/28 09:07:37;;;;;;;4.50;3.25;;;;;;;;;;5034307;28;20208;-71
2023/07/28 09:10:05;;;;;;;3.40;3.10;;;;;;;;;;5034765;28;20204;-71
2023/07/28 09:12:34;;;;;;;7.20;3.65;;;;;;;;;;5037501;28;20199;-71
2023/07/28 09:15:01;;;;;;;3.92;3.60;;;;;;;;;;5036141;28;20206;-70
2023/07/28 09:17:33;;;;;;;3.22;3.03;;;;;;;;;;5035178;28;20204;-72
2023/07/28 09:20:00;;;;;;;3.63;3.20;;;;;;;;;;5032612;28;20216;-71
2023/07/28 09:22:31;;;;;;;3.75;2.70;;;;;;;;;;5035545;28;20355;-71
2023/07/28 09:24:58;;;;;;;2.55;2.42;;;;;;;;;;5033770;28;20211;-71
2023/07/28 09:27:28;;;;;;;2.85;2.65;;;;;;;;;;5033499;28;20210;-71
2023/07/28 09:29:57;;;;;;;3.78;2.90;;;;;;;;;;5034328;28;20294;-71
2023/07/28 09:32:32;;;;;;;2.40;2.30;;;;;;;;;;5032421;28;20204;-71
2023/07/28 09:35:09;;;;;;;3.40;2.80;;;;;;;;;;5028487;28;20227;-71
2023/07/28 09:37:38;;;;;;;2.95;2.72;;;;;;;;;;5031907;28;20207;-71
2023/07/28 09:40:09;;;;;;;2.92;2.63;;;;;;;;;;5031444;28;20211;-71
2023/07/28 09:42:39;;;;;;;3.38;2.80;;;;;;;;;;5029818;28;21747;-69
2023/07/28 09:45:10;;;;;;;3.47;2.88;;;;;;;;;;5030358;28;20207;-68
2023/07/28 09:47:38;;;;;;;3.00;2.80;;;;;;;;;;5035710;28;20208;-69
2023/07/28 09:50:06;;;;;;;2.70;2.45;;;;;;;;;;5040561;28;20215;-69
2023/07/28 09:52:35;;;;;;;3.13;2.92;;;;;;;;;;5036510;28;20204;-67
2023/07/28 09:55:07;;;;;;;3.00;2.80;;;;;;;;;;5041278;28;20223;-68
2023/07/28 09:57:38;;;;;;;3.25;2.95;;;;;;;;;;5043356;28;20235;-67
2023/07/28 10:00:06;;;;;;;2.85;2.60;;;;;;;;;;5042237;28;20211;-67
2023/07/28 10:02:35;;;;;;;2.83;2.60;;;;;;;;;;5039207;28;20204;-67
2023/07/28 10:05:04;;;;;;;3.78;2.47;;;;;;;;;;5043128;28;20200;-68
2023/07/28 10:07:31;;;;;;;2.20;2.10;;;;;;;;;;5044654;28;20330;-68
2023/07/28 10:09:59;;;;;;;3.63;2.55;;;;;;;;;;5046150;28;20217;-68
2023/07/28 10:12:27;;;;;;;2.40;2.20;;;;;;;;;;5034147;28;20222;-67
2023/07/28 10:15:01;;;;;;;2.60;2.40;;;;;;;;;;5042657;28;20230;-68
2023/07/28 10:17:33;;;;;;;2.33;2.13;;;;;;;;;;5039336;28;20207;-67
2023/07/28 10:20:02;;;;;;;3.88;1.90;;;;;;;;;;5039514;28;20208;-68
2023/07/28 10:22:29;;;;;;;1.95;1.85;;;;;;;;;;5039399;28;20223;-68
2023/07/28 10:24:57;;;;;;;2.08;1.98;;;;;;;;;;5040307;28;20205;-68
2023/07/28 10:27:31;;;;;;;2.00;1.80;;;;;;;;;;5038767;28;20206;-68
2023/07/28 10:29:59;;;;;;;2.00;1.90;;;;;;;;;;5041720;28;20210;-68
2023/07/28 10:32:30;;;;;;;3.72;1.90;;;;;;;;;;5043076;28;20209;-68
2023/07/28 10:35:07;;;;;;;2.08;1.70;;;;;;;;;;5042037;28;20227;-68
2023/07/28 10:37:35;;;;;;;1.80;1.70;;;;;;;;;;5039766;28;20195;-68
2023/07/28 10:40:17;;;;;;;1.70;1.60;;;;;;;;;;5035040;28;20204;-68
2023/07/28 10:42:44;;;;;;;1.50;1.40;;;;;;;;;;5028999;28;20204;-68
2023/07/28 10:45:12;;;;;;;1.50;1.40;;;;;;;;;;5039683;28;20200;-68
2023/07/28 10:47:39;;;;;;;1.30;1.30;;;;;;;;;;5041163;28;20225;-69
2023/07/28 10:50:10;;;;;;;1.45;1.35;;;;;;;;;;5039502;28;20199;-67
2023/07/28 10:52:40;;;;;;;1.40;1.30;;;;;;;;;;5036955;28;20217;-68
2023/07/28 10:55:14;;;;;;;1.40;1.30;;;;;;;;;;5044833;28;20223;-67
2023/07/28 10:57:42;;;;;;;1.38;1.27;;;;;;;;;;5040845;28;20212;-67
2023/07/28 11:00:11;;;;;;;1.30;1.20;;;;;;;;;;5041403;28;20231;-67
2023/07/28 11:02:39;;;;;;;2.95;1.27;;;;;;;;;;5036785;28;20218;-68
2023/07/28 11:05:13;;;;;;;1.60;1.50;;;;;;;;;;5043189;28;20302;-68
2023/07/28 11:07:42;;;;;;;1.50;1.40;;;;;;;;;;5038077;28;20211;-67
2023/07/28 11:10:11;;;;;;;2.63;1.35;;;;;;;;;;5038831;28;20224;-68
2023/07/28 11:12:40;;;;;;;1.90;1.80;;;;;;;;;;5036653;28;20200;-67
2023/07/28 11:15:10;;;;;;;1.70;1.60;;;;;;;;;;5036991;28;20227;-67
2023/07/28 11:17:38;;;;;;;1.67;1.50;;;;;;;;;;5042909;28;20239;-67
2023/07/28 11:20:07;;;;;;;1.35;1.35;;;;;;;;;;5039117;28;20205;-67
2023/07/28 11:22:39;;;;;;;1.50;1.50;;;;;;;;;;5042586;28;20233;-67
2023/07/28 11:25:09;;;;;;;1.65;1.55;;;;;;;;;;5036307;28;20219;-68
2023/07/28 11:27:36;;;;;;;1.60;1.50;;;;;;;;;;5040328;28;20200;-68
2023/07/28 11:30:04;;;;;;;1.33;1.30;;;;;;;;;;5035505;28;20262;-67
2023/07/28 11:32:32;;;;;;;2.17;1.52;;;;;;;;;;5037675;28;20258;-67
2023/07/28 11:35:04;;;;;;;1.98;1.30;;;;;;;;;;5034438;28;20227;-68
2023/07/28 11:37:33;;;;;;;1.30;1.30;;;;;;;;;;5043698;28;20346;-66
2023/07/28 11:40:06;;;;;;;1.50;1.40;;;;;;;;;;5035335;28;20200;-67
2023/07/28 11:42:33;;;;;;;1.40;1.30;;;;;;;;;;5039397;28;20200;-68
2023/07/28 11:45:01;;;;;;;2.22;1.30;;;;;;;;;;5038671;28;20219;-67
2023/07/28 11:47:29;;;;;;;1.20;1.10;;;;;;;;;;5039718;28;20594;-68
2023/07/28 11:49:58;;;;;;;0.80;0.80;;;;;;;;;;5038360;28;20210;-68
2023/07/28 11:52:25;;;;;;;1.00;1.00;;;;;;;;;;5036966;28;20567;-67
2023/07/28 11:54:53;;;;;;;1.10;1.10;;;;;;;;;;5038428;28;20220;-68
2023/07/28 11:57:22;;;;;;;2.03;1.20;;;;;;;;;;5026224;28;20204;-68
2023/07/28 11:59:49;;;;;;;1.13;1.02;;;;;;;;;;5027235;28;20212;-67
2023/07/28 12:02:26;;;;;;;2.78;1.40;;;;;;;;;;5038199;28;20213;-67
2023/07/28 12:04:54;;;;;;;1.33;1.17;;;;;;;;;;5032515;28;20235;-67
2023/07/28 12:07:22;;;;;;;4.20;1.20;;;;;;;;;;5035170;28;20208;-67
2023/07/28 12:09:51;;;;;;;1.10;1.10;;;;;;;;;;5041114;28;20214;-67
2023/07/28 12:12:19;;;;;;;1.10;1.10;;;;;;;;;;5037460;28;20214;-67
2023/07/28 12:14:47;;;;;;;1.40;1.10;;;;;;;;;;5038399;28;20232;-67
2023/07/28 12:17:15;;;;;;;1.77;0.90;;;;;;;;;;5037418;28;20398;-66
2023/07/28 12:19:42;;;;;;;1.15;1.10;;;;;;;;;;5034910;28;20350;-66
2023/07/28 12:22:09;;;;;;;1.98;1.10;;;;;;;;;;5035086;28;20284;-67
2023/07/28 12:24:37;;;;;;;1.08;1.05;;;;;;;;;;5037401;28;20206;-67
2023/07/28 12:27:04;;;;;;;1.63;1.00;;;;;;;;;;5038168;28;20204;-66
2023/07/28 12:29:31;;;;;;;2.13;1.20;;;;;;;;;;5036292;28;20195;-66
2023/07/28 12:32:00;;;;;;;1.38;1.10;;;;;;;;;;5039622;28;20208;-67
2023/07/28 12:34:27;;;;;;;1.00;1.00;;;;;;;;;;5037113;28;20229;-67
2023/07/28 12:36:54;;;;;;;0.93;0.70;;;;;;;;;;5036126;28;20208;-67
2023/07/28 12:39:21;;;;;;;1.17;1.00;;;;;;;;;;5035787;28;20212;-67
2023/07/28 12:41:48;;;;;;;1.38;0.80;;;;;;;;;;5033560;28;20208;-68
2023/07/28 12:44:15;;;;;;;0.90;0.90;;;;;;;;;;5039709;28;20200;-66
2023/07/28 12:46:43;;;;;;;1.75;0.80;;;;;;;;;;5036771;28;20204;-66
2023/07/28 12:49:11;;;;;;;1.00;1.00;;;;;;;;;;5037667;28;20363;-66
2023/07/28 12:51:38;;;;;;;1.00;1.00;;;;;;;;;;5035326;28;20286;-65
2023/07/28 12:54:06;;;;;;;1.20;1.10;;;;;;;;;;5035124;28;20226;-66
2023/07/28 12:56:34;;;;;;;2.03;1.10;;;;;;;;;;5039960;28;20246;-65
2023/07/28 12:59:01;;;;;;;1.48;1.00;;;;;;;;;;5040417;28;20208;-65
2023/07/28 13:01:28;;;;;;;1.10;1.10;;;;;;;;;;5036846;28;20211;-65
2023/07/28 13:03:56;;;;;;;1.60;1.17;;;;;;;;;;5041807;28;20212;-65
2023/07/28 13:06:24;;;;;;;1.67;1.20;;;;;;;;;;5038673;28;20207;-66
2023/07/28 13:08:51;;;;;;;2.58;1.40;;;;;;;;;;5035443;28;20215;-65
2023/07/28 13:11:19;;;;;;;1.27;1.17;;;;;;;;;;5030572;28;20204;-66
2023/07/28 13:13:46;;;;;;;1.30;1.30;;;;;;;;;;5033639;28;20289;-65
2023/07/28 13:16:13;;;;;;;1.42;1.25;;;;;;;;;;5033462;28;20234;-66
2023/07/28 13:18:40;;;;;;;2.53;1.27;;;;;;;;;;5031088;28;20207;-65
2023/07/28 13:21:07;;;;;;;1.48;1.30;;;;;;;;;;5032190;28;20211;-72
2023/07/28 13:23:36;;;;;;;1.20;1.20;;;;;;;;;;5031219;28;20375;-71
2023/07/28 13:26:04;;;;;;;1.50;1.40;;;;;;;;;;5032377;28;20227;-69
2023/07/28 13:28:31;;;;;;;1.60;1.50;;;;;;;;;;5035389;28;20199;-70
2023/07/28 13:30:59;;;;;;;1.83;1.73;;;;;;;;;;5032380;28;20213;-71
2023/07/28 13:33:26;;;;;;;1.70;1.60;;;;;;;;;;5038094;28;20203;-70
2023/07/28 13:35:54;;;;;;;1.40;1.30;;;;;;;;;;5043820;28;20315;-70
2023/07/28 13:38:21;;;;;;;1.70;1.60;;;;;;;;;;5042674;28;20224;-68
2023/07/28 13:40:49;;;;;;;1.70;1.60;;;;;;;;;;5043448;28;20203;-70
2023/07/28 13:43:17;;;;;;;1.52;1.42;;;;;;;;;;5048148;28;20199;-71
2023/07/28 13:45:44;;;;;;;1.33;1.30;;;;;;;;;;5036419;28;20207;-71
2023/07/28 13:48:11;;;;;;;1.70;1.60;;;;;;;;;;5039420;28;20200;-71
2023/07/28 13:50:38;;;;;;;1.50;1.40;;;;;;;;;;5044263;28;20220;-73
2023/07/28 13:53:05;;;;;;;1.70;1.60;;;;;;;;;;5048383;28;20271;-71
2023/07/28 13:55:32;;;;;;;2.60;1.50;;;;;;;;;;5040764;28;20230;-72
2023/07/28 13:58:01;;;;;;;1.45;1.35;;;;;;;;;;5036501;28;20216;-68
2023/07/28 14:00:28;;;;;;;2.80;1.50;;;;;;;;;;5042424;28;20208;-71
2023/07/28 14:02:55;;;;;;;1.40;1.30;;;;;;;;;;5045578;28;20379;-71
2023/07/28 14:05:22;;;;;;;2.90;1.40;;;;;;;;;;5042675;28;20199;-70
2023/07/28 14:07:50;;;;;;;1.52;1.42;;;;;;;;;;5043639;28;20285;-71
2023/07/28 14:10:17;;;;;;;1.58;1.48;;;;;;;;;;5039626;28;20200;-71
2023/07/28 14:12:44;;;;;;;1.40;1.30;;;;;;;;;;5041196;28;20195;-69
2023/07/28 14:15:12;;;;;;;1.60;1.50;;;;;;;;;;5042091;28;20227;-70
2023/07/28 14:17:40;;;;;;;1.50;1.40;;;;;;;;;;5043250;28;20207;-71
2023/07/28 14:20:08;;;;;;;1.50;1.40;;;;;;;;;;5047199;28;20203;-70
2023/07/28 14:22:35;;;;;;;1.60;1.50;;;;;;;;;;5042069;28;20242;-70
2023/07/28 14:25:02;;;;;;;1.63;1.52;;;;;;;;;;5037986;28;20211;-70
2023/07/28 14:27:30;;;;;;;2.17;1.27;;;;;;;;;;5046023;28;20207;-70
2023/07/28 14:29:57;;;;;;;1.33;1.33;;;;;;;;;;5043066;28;20204;-71
2023/07/28 14:32:25;;;;;;;1.70;1.60;;;;;;;;;;5044181;28;20214;-71
2023/07/28 14:34:53;;;;;;;1.95;1.42;;;;;;;;;;5043554;28;20228;-71
2023/07/28 14:37:20;;;;;;;1.45;1.45;;;;;;;;;;5042342;28;20281;-70
2023/07/28 14:39:47;;;;;;;1.90;1.35;;;;;;;;;;5045857;28;20203;-71
2023/07/28 14:42:14;;;;;;;2.35;1.42;;;;;;;;;;5040374;28;20211;-70
2023/07/28 14:44:41;;;;;;;1.40;1.40;;;;;;;;;;5036483;28;20203;-70
2023/07/28 14:47:08;;;;;;;1.48;1.40;;;;;;;;;;5043702;28;20203;-70
2023/07/28 14:49:37;;;;;;;3.60;1.40;;;;;;;;;;5038277;28;20200;-71
2023/07/28 14:52:06;;;;;;;1.50;1.40;;;;;;;;;;5038451;28;20402;-75